Portada
METAR-TAF:

METAR-TAF

Aeropuertos :

Aeropuerto Internacional Inca Manco Cápac

Juliaca, Perú

latitud: 15-29S, longitud: 070-09W, altitud: 3826 m

Observación

El informe se hizo hace 55 minutos, a las 23:00 UTC
Viento 10 kt del sur-sureste
Temperatura 14°C
Humedad 44%
Presión 1032 hPa
Visibilidad 10 km o más
Nubes dispersas a una altura de 1500 ft
Cielo nuboso a una altura de 8000 ft

METAR: SPJL 142300Z 16010KT 9999 SCT015 BKN080 14/02 Q1032 RMK PP000

Hora: 18:55 (23:55 UTC)

Pronóstico

El informe se hizo hace 55 minutos, a las 23:00 UTC
Pronóstico válido del 15 a las 00 UTC al 15 a las 24 UTC
Viento 7 kt del sur-sureste
Visibilidad 10 km o más
Nubes dispersas a una altura de 1200 ft
Cielo nuboso a una altura de 8000 ft
Temporalmente
del 15 a las 00 UTC al 15 a las 02 UTC
Cielo nuboso a una altura de 1200 ft

TAF: SPJL 142300Z 1500/1524 15007KT 9999 SCT012 BKN080 TX18/1518Z TN05/1510Z TEMPO 1500/1502 BKN012

Observaciones y pronósticos meteorológicos de más de 4000 aeropuertos (mensajes METAR y TAF).

Los puntos amarillos y rojos representan las estaciones disponibles.

Ponga el ratón en el punto deseado para ver el nombre de la estación.

Haga clic para ver las observaciones y los pronósticos meteorológicos.

Para cambiar el mapa : haga clic en los botones verdes con una cruz de color negro para hacer un zoom, en el botón verde con un guión para alejar o en las flechas verdes para mapas adyacentes.


METAR-TAF: